Time;durP1;ratioP1;P1;durP2;ratioP2;P2;SDS_P1;SDS_P2;PMS_P1;PMS_P2;Temp;Humidity;BMP_temperature;BMP_pressure;BME280_temperature;BME280_humidity;BME280_pressure;Samples;Min_cycle;Max_cycle;Signal;HPM_P1;HPM_P2
2022/03/13 00:00:02;;;;;;;;;;;;;;;10.22;53.71;101428.13;4915630;29;19942;-82
2022/03/13 00:02:27;;;;;;;;;;;;;;;10.22;53.80;101436.06;4930647;29;19919;-82
2022/03/13 00:04:52;;;;;;;;;;;;;;;10.20;53.64;101434.34;4915266;29;20350;-82
2022/03/13 00:07:22;;;;;;;;;;;;;;;10.18;53.70;101428.19;4932033;29;19938;-82
2022/03/13 00:09:48;;;;;;;;;;;;;;;10.19;53.75;101433.47;4933454;29;20315;-82
2022/03/13 00:12:15;;;;;;;;;;;;;;;10.20;53.75;101435.22;4915904;29;20068;-81
2022/03/13 00:14:44;;;;;;;;;;;;;;;10.17;54.14;101435.25;4917133;29;20018;-82
2022/03/13 00:17:11;;;;;;;;;;;;;;;10.17;54.59;101432.59;4919836;29;20342;-82
2022/03/13 00:19:37;;;;;;;;;;;;;;;10.21;54.30;101436.06;4937462;29;19998;-82
2022/03/13 00:22:04;;;;;;;;;;;;;;;10.18;54.25;101426.41;4903663;29;19915;-82
2022/03/13 00:24:31;;;;;;;;;;;;;;;10.24;54.04;101425.47;4935567;29;19923;-82
2022/03/13 00:26:56;;;;;;;;;;;;;;;10.20;53.31;101429.91;4935740;29;19962;-81
2022/03/13 00:29:22;;;;;;;;;;;;;;;10.18;54.44;101426.41;4904085;29;19923;-82
2022/03/13 00:31:47;;;;;;;;;;;;;;;10.16;54.51;101428.19;4902885;29;19922;-81
2022/03/13 00:34:13;;;;;;;;;;;;;;;10.16;54.89;101427.31;4888136;29;19923;-82
2022/03/13 00:36:39;;;;;;;;;;;;;;;10.15;54.37;101423.78;4903884;29;19965;-82
2022/03/13 00:39:05;;;;;;;;;;;;;;;10.13;55.20;101418.50;4904008;29;19984;-82
2022/03/13 00:41:30;;;;;;;;;;;;;;;10.12;54.59;101423.84;4904052;29;20372;-81
2022/03/13 00:43:56;;;;;;;;;;;;;;;10.11;54.32;101414.13;4904521;29;20029;-81
2022/03/13 00:46:21;;;;;;;;;;;;;;;10.11;55.14;101401.78;4936764;29;19922;-81
2022/03/13 00:48:46;;;;;;;;;;;;;;;10.10;54.59;101409.75;4904075;29;19919;-81
2022/03/13 00:51:12;;;;;;;;;;;;;;;10.10;54.99;101399.16;4919796;29;20374;-82
2022/03/13 00:53:38;;;;;;;;;;;;;;;10.08;54.53;101404.44;4903641;29;19919;-82
2022/03/13 00:56:04;;;;;;;;;;;;;;;10.07;54.86;101405.34;4935993;29;20358;-82
2022/03/13 00:58:29;;;;;;;;;;;;;;;10.04;54.68;101405.41;4919246;29;20029;-82
2022/03/13 01:00:55;;;;;;;;;;;;;;;10.04;54.64;101401.84;4903904;29;19950;-81
2022/03/13 01:03:45;;;;;;;;;;;;;;;10.00;54.60;101393.09;4903232;29;19919;-82
2022/03/13 01:06:10;;;;;;;;;;;;;;;9.98;54.87;101386.06;4918983;29;19921;-82
2022/03/13 01:08:36;;;;;;;;;;;;;;;9.95;54.56;101386.97;4903447;29;19915;-82
2022/03/13 01:11:02;;;;;;;;;;;;;;;9.92;54.65;101386.13;4897163;29;19966;-82
2022/03/13 01:13:27;;;;;;;;;;;;;;;9.90;55.07;101389.66;4918113;29;20389;-82
2022/03/13 01:16:08;;;;;;;;;;;;;;;9.90;54.45;101383.50;4945400;28;20005;-82
2022/03/13 01:18:39;;;;;;;;;;;;;;;9.86;54.88;101381.75;4936416;29;19930;-82
2022/03/13 01:21:04;;;;;;;;;;;;;;;9.82;55.19;101374.78;4918973;29;19918;-82
2022/03/13 01:23:30;;;;;;;;;;;;;;;9.80;55.20;101376.56;4902823;29;19946;-82
2022/03/13 01:26:16;;;;;;;;;;;;;;;9.78;55.39;101373.91;4902958;29;19918;-82
2022/03/13 01:28:41;;;;;;;;;;;;;;;9.76;55.16;101369.53;4918397;29;19973;-81
2022/03/13 01:31:07;;;;;;;;;;;;;;;9.68;55.42;101364.31;4903027;29;19957;-82
2022/03/13 01:33:33;;;;;;;;;;;;;;;9.63;55.44;101360.84;4902612;29;19938;-82
2022/03/13 01:35:58;;;;;;;;;;;;;;;9.58;55.01;101366.16;4918603;29;19930;-82
2022/03/13 01:38:24;;;;;;;;;;;;;;;9.52;56.03;101358.31;4902801;29;19970;-81
2022/03/13 01:40:49;;;;;;;;;;;;;;;9.48;56.13;101348.63;4918427;29;19921;-82
2022/03/13 01:43:15;;;;;;;;;;;;;;;9.46;55.79;101350.41;4918323;29;20019;-82
2022/03/13 01:45:41;;;;;;;;;;;;;;;9.42;56.87;101354.88;4902747;29;19969;-82
2022/03/13 01:48:06;;;;;;;;;;;;;;;9.37;57.18;101345.19;4918415;29;19922;-82
2022/03/13 01:50:32;;;;;;;;;;;;;;;9.34;56.68;101346.09;4918537;29;19919;-82
2022/03/13 01:52:57;;;;;;;;;;;;;;;9.30;56.17;101339.13;4902512;29;19980;-82
2022/03/13 01:55:23;;;;;;;;;;;;;;;9.26;56.78;101340.88;4918614;29;19970;-82
2022/03/13 01:57:49;;;;;;;;;;;;;;;9.26;56.58;101337.38;4918338;29;19938;-82
2022/03/13 02:00:16;;;;;;;;;;;;;;;9.22;56.53;101325.97;4928253;29;19998;-82
2022/03/13 02:02:43;;;;;;;;;;;;;;;9.20;56.45;101325.09;4915172;29;19914;-81
2022/03/13 02:05:18;;;;;;;;;;;;;;;9.18;55.83;101321.59;4899429;29;20334;-82
2022/03/13 02:07:45;;;;;;;;;;;;;;;9.16;55.79;101333.94;4899400;29;20058;-82
2022/03/13 02:10:11;;;;;;;;;;;;;;;9.15;56.38;101328.66;4914974;29;19965;-82
2022/03/13 02:12:36;;;;;;;;;;;;;;;9.12;56.95;101323.41;4917303;29;19919;-82
2022/03/13 02:15:02;;;;;;;;;;;;;;;9.10;56.47;101319.88;4900748;29;20235;-82
2022/03/13 02:17:32;;;;;;;;;;;;;;;9.07;56.29;101323.44;4902191;29;19918;-81
2022/03/13 02:19:57;;;;;;;;;;;;;;;9.04;56.39;101316.41;4935106;29;19915;-81
2022/03/13 02:22:23;;;;;;;;;;;;;;;9.00;57.05;101319.06;4902353;29;19921;-82
2022/03/13 02:24:50;;;;;;;;;;;;;;;8.99;57.21;101323.50;4902195;29;19922;-82
2022/03/13 02:27:18;;;;;;;;;;;;;;;8.98;57.34;101326.16;4933752;29;19915;-82
2022/03/13 02:29:45;;;;;;;;;;;;;;;9.00;57.27;101322.63;4918108;29;20025;-82
2022/03/13 02:32:11;;;;;;;;;;;;;;;8.97;57.47;101322.63;4935366;29;19981;-82
2022/03/13 02:34:37;;;;;;;;;;;;;;;8.98;57.33;101326.16;4914530;29;19937;-82
2022/03/13 02:37:02;;;;;;;;;;;;;;;8.96;57.03;101328.81;4915875;29;20009;-82
2022/03/13 02:39:29;;;;;;;;;;;;;;;8.96;58.02;101327.94;4913402;29;20355;-82
2022/03/13 02:41:54;;;;;;;;;;;;;;;8.94;57.56;101329.72;4946031;29;19915;-82
2022/03/13 02:44:20;;;;;;;;;;;;;;;8.94;56.70;101325.28;4914287;29;19990;-82
2022/03/13 02:46:45;;;;;;;;;;;;;;;8.91;58.02;101333.25;4932390;29;19918;-82
2022/03/13 02:49:11;;;;;;;;;;;;;;;8.89;58.51;101328.88;4930194;29;19926;-81
2022/03/13 02:51:36;;;;;;;;;;;;;;;8.87;57.45;101323.59;4882623;29;19915;-82
2022/03/13 02:54:03;;;;;;;;;;;;;;;8.87;57.34;101317.44;4898983;29;19939;-82
2022/03/13 02:56:29;;;;;;;;;;;;;;;8.86;58.07;101315.69;4914049;29;19923;-81
2022/03/13 02:58:54;;;;;;;;;;;;;;;8.86;57.32;101313.91;4914181;29;20295;-82
2022/03/13 03:01:21;;;;;;;;;;;;;;;8.87;56.98;101310.38;4882455;29;20011;-81
2022/03/13 03:03:47;;;;;;;;;;;;;;;8.85;56.59;101312.16;4882919;29;19919;-80
2022/03/13 03:06:13;;;;;;;;;;;;;;;8.85;57.80;101306.88;4915164;29;20450;-81
2022/03/13 03:08:38;;;;;;;;;;;;;;;8.85;57.68;101311.28;4913905;29;19925;-81
2022/03/13 03:11:04;;;;;;;;;;;;;;;8.82;57.95;101309.53;4920125;29;20228;-81
2022/03/13 03:13:29;;;;;;;;;;;;;;;8.80;58.23;101308.66;4895449;29;19999;-81
2022/03/13 03:15:54;;;;;;;;;;;;;;;8.78;58.26;101310.47;4932563;29;19930;-80
2022/03/13 03:18:22;;;;;;;;;;;;;;;8.78;57.88;101308.69;4932468;29;20306;-81
2022/03/13 03:20:47;;;;;;;;;;;;;;;8.78;58.24;101305.19;4937228;29;20022;-81
2022/03/13 03:23:13;;;;;;;;;;;;;;;8.77;58.19;101296.34;4900876;29;20027;-81
2022/03/13 03:25:38;;;;;;;;;;;;;;;8.78;58.26;101294.63;4917318;29;20378;-80
2022/03/13 03:28:04;;;;;;;;;;;;;;;8.79;57.97;101294.59;4916885;29;20406;-81
2022/03/13 03:30:30;;;;;;;;;;;;;;;8.79;58.25;101296.34;4901077;29;19907;-81
2022/03/13 03:32:56;;;;;;;;;;;;;;;8.78;59.14;101299.91;4933772;29;19918;-81
2022/03/13 03:35:22;;;;;;;;;;;;;;;8.76;59.35;101299.91;4901057;29;19997;-80
2022/03/13 03:37:52;;;;;;;;;;;;;;;8.74;60.49;101295.53;4900814;29;20062;-80
2022/03/13 03:40:24;;;;;;;;;;;;;;;8.71;60.84;101300.81;4932772;29;20013;-80
2022/03/13 03:42:50;;;;;;;;;;;;;;;8.69;60.63;101297.31;4900729;29;19919;-81
2022/03/13 03:45:18;;;;;;;;;;;;;;;8.67;60.92;101301.72;4901313;29;20224;-81
2022/03/13 03:47:44;;;;;;;;;;;;;;;8.66;60.07;101297.34;4916408;29;20308;-81
2022/03/13 03:50:13;;;;;;;;;;;;;;;8.66;60.28;101294.72;4924555;29;19950;-81
2022/03/13 03:52:38;;;;;;;;;;;;;;;8.63;61.12;101295.59;4932069;29;20469;-81
2022/03/13 03:55:03;;;;;;;;;;;;;;;8.61;60.89;101295.59;4900997;29;19946;-81
2022/03/13 03:57:29;;;;;;;;;;;;;;;8.60;59.28;101296.50;4916423;29;20006;-81
2022/03/13 03:59:54;;;;;;;;;;;;;;;8.59;61.68;101297.38;4932592;29;20393;-81
2022/03/13 04:02:20;;;;;;;;;;;;;;;8.59;61.26;101297.38;4914922;29;19965;-81
2022/03/13 04:04:46;;;;;;;;;;;;;;;8.59;60.24;101294.72;4897764;29;19926;-81
2022/03/13 04:07:11;;;;;;;;;;;;;;;8.59;60.42;101301.78;4897431;29;19915;-81
2022/03/13 04:09:37;;;;;;;;;;;;;;;8.57;60.04;101292.97;4897610;29;19937;-81
2022/03/13 04:12:07;;;;;;;;;;;;;;;8.56;60.44;101281.56;4912938;29;19958;-81
2022/03/13 04:14:34;;;;;;;;;;;;;;;8.54;59.54;101283.31;4927130;29;19926;-81
2022/03/13 04:16:59;;;;;;;;;;;;;;;8.54;60.63;101290.38;4900691;29;19952;-80
2022/03/13 04:19:27;;;;;;;;;;;;;;;8.55;60.08;101287.69;4916606;29;19958;-81
2022/03/13 04:21:53;;;;;;;;;;;;;;;8.55;61.94;101285.06;4900861;29;20017;-81
2022/03/13 04:24:19;;;;;;;;;;;;;;;8.53;60.65;101283.31;4933914;29;19926;-81
2022/03/13 04:26:44;;;;;;;;;;;;;;;8.54;60.44;101290.38;4916492;29;20327;-81
2022/03/13 04:29:10;;;;;;;;;;;;;;;8.54;61.05;101285.09;4933665;29;19994;-81
2022/03/13 04:31:37;;;;;;;;;;;;;;;8.53;60.35;101281.59;4900448;29;19969;-83
2022/03/13 04:34:03;;;;;;;;;;;;;;;8.52;60.05;101284.22;4916439;29;19989;-81
2022/03/13 04:36:30;;;;;;;;;;;;;;;8.50;59.48;101281.56;4933377;29;20312;-81
2022/03/13 04:38:56;;;;;;;;;;;;;;;8.51;61.01;101283.34;4900952;29;20231;-81
2022/03/13 04:41:21;;;;;;;;;;;;;;;8.56;59.73;101286.84;4933207;29;19938;-81
2022/03/13 04:43:47;;;;;;;;;;;;;;;8.52;60.74;101292.13;4900454;29;19922;-81
2022/03/13 04:46:14;;;;;;;;;;;;;;;8.50;59.88;101291.25;4900409;29;20186;-81
2022/03/13 04:48:40;;;;;;;;;;;;;;;8.50;60.74;101304.47;4916133;29;19973;-81
2022/03/13 04:51:05;;;;;;;;;;;;;;;8.46;60.58;101293.06;4916039;29;19926;-81
2022/03/13 04:53:30;;;;;;;;;;;;;;;8.45;62.18;101291.28;4884586;29;19973;-81
2022/03/13 04:55:56;;;;;;;;;;;;;;;8.39;60.91;101283.38;4904286;29;20029;-80
2022/03/13 04:58:21;;;;;;;;;;;;;;;8.34;63.38;101288.69;4912598;29;20101;-81
2022/03/13 05:00:48;;;;;;;;;;;;;;;8.31;60.44;101288.72;4914225;29;19943;-81
2022/03/13 05:03:14;;;;;;;;;;;;;;;8.29;62.77;101286.97;4915562;29;19919;-80
2022/03/13 05:05:40;;;;;;;;;;;;;;;8.24;60.76;101275.56;4900447;29;19916;-81
2022/03/13 05:08:06;;;;;;;;;;;;;;;8.19;62.59;101276.47;4915831;29;19965;-81
2022/03/13 05:10:36;;;;;;;;;;;;;;;8.17;61.41;101278.22;4900338;29;20019;-81
2022/03/13 05:13:02;;;;;;;;;;;;;;;8.12;61.60;101266.81;4917641;29;19978;-81
2022/03/13 05:15:28;;;;;;;;;;;;;;;8.10;62.93;101273.84;4931080;29;19965;-80
2022/03/13 05:17:53;;;;;;;;;;;;;;;8.05;62.84;101273.00;4919072;29;19962;-81
2022/03/13 05:20:18;;;;;;;;;;;;;;;8.01;61.44;101270.38;4936155;29;19919;-81
2022/03/13 05:22:44;;;;;;;;;;;;;;;8.00;61.76;101266.00;4935941;29;20478;-81
2022/03/13 05:25:13;;;;;;;;;;;;;;;7.95;63.88;101272.16;4918901;29;19915;-81
2022/03/13 05:27:39;;;;;;;;;;;;;;;7.92;64.00;101268.69;4903340;29;19919;-81
2022/03/13 05:30:07;;;;;;;;;;;;;;;7.90;63.49;101267.81;4934428;29;20350;-81
2022/03/13 05:32:34;;;;;;;;;;;;;;;7.88;62.99;101266.91;4918339;29;20013;-81
2022/03/13 05:35:00;;;;;;;;;;;;;;;7.88;63.11;101264.28;4919035;29;19958;-81
2022/03/13 05:37:25;;;;;;;;;;;;;;;7.86;62.91;101269.59;4934135;29;20347;-81
2022/03/13 05:39:51;;;;;;;;;;;;;;;7.84;61.84;101260.78;4902992;29;20027;-81
2022/03/13 05:42:17;;;;;;;;;;;;;;;7.83;62.05;101266.06;4918410;29;19976;-81
2022/03/13 05:44:42;;;;;;;;;;;;;;;7.79;62.53;101267.84;4926012;29;19958;-81
2022/03/13 05:47:07;;;;;;;;;;;;;;;7.78;63.55;101273.13;4916497;29;19962;-81
2022/03/13 05:49:33;;;;;;;;;;;;;;;7.75;63.17;101274.88;4884020;29;19970;-81
2022/03/13 05:52:00;;;;;;;;;;;;;;;7.72;63.10;101277.53;4914872;29;20009;-81
2022/03/13 05:54:25;;;;;;;;;;;;;;;7.71;62.75;101277.53;4916701;29;19926;-81
2022/03/13 05:56:51;;;;;;;;;;;;;;;7.73;62.87;101281.03;4883577;29;19911;-81
2022/03/13 05:59:16;;;;;;;;;;;;;;;7.69;62.37;101284.56;4899276;29;19919;-81
2022/03/13 06:01:42;;;;;;;;;;;;;;;7.67;63.29;101289.84;4899194;29;19974;-81
2022/03/13 06:04:08;;;;;;;;;;;;;;;7.66;62.67;101282.81;4914912;29;19966;-81
2022/03/13 06:06:34;;;;;;;;;;;;;;;7.65;63.57;101286.34;4916293;29;19915;-81
2022/03/13 06:09:00;;;;;;;;;;;;;;;7.67;61.46;101289.84;4898960;29;20370;-81
2022/03/13 06:11:25;;;;;;;;;;;;;;;7.67;63.52;101288.97;4899015;29;19926;-81
2022/03/13 06:13:50;;;;;;;;;;;;;;;7.63;63.11;101282.81;4905798;29;20382;-81
2022/03/13 06:16:16;;;;;;;;;;;;;;;7.63;63.41;101282.81;4901895;29;20100;-81
2022/03/13 06:18:41;;;;;;;;;;;;;;;7.63;62.31;101290.72;4901956;29;19927;-81
2022/03/13 06:21:06;;;;;;;;;;;;;;;7.62;60.81;101298.66;4901563;29;20067;-82
2022/03/13 06:23:33;;;;;;;;;;;;;;;7.62;61.85;101296.03;4914446;29;20324;-81
2022/03/13 06:25:59;;;;;;;;;;;;;;;7.61;63.22;101289.84;4914382;29;19922;-81
2022/03/13 06:28:26;;;;;;;;;;;;;;;7.60;62.44;101293.38;4915913;29;20359;-82
2022/03/13 06:30:51;;;;;;;;;;;;;;;7.61;61.84;101292.47;4898744;29;19922;-81
2022/03/13 06:33:17;;;;;;;;;;;;;;;7.62;62.62;101290.75;4910885;29;19923;-81
2022/03/13 06:35:42;;;;;;;;;;;;;;;7.61;61.67;101299.53;4879795;29;19920;-82
2022/03/13 06:38:08;;;;;;;;;;;;;;;7.60;63.49;101298.66;4911547;29;19919;-82
2022/03/13 06:40:34;;;;;;;;;;;;;;;7.60;61.85;101295.16;4880029;29;19915;-81
2022/03/13 06:43:00;;;;;;;;;;;;;;;7.56;63.27;101288.97;4926859;29;19915;-82
2022/03/13 06:45:26;;;;;;;;;;;;;;;7.56;62.15;101294.25;4895440;29;19923;-82
2022/03/13 06:47:52;;;;;;;;;;;;;;;7.54;63.01;101291.63;4895161;29;20237;-81
2022/03/13 06:50:18;;;;;;;;;;;;;;;7.55;62.48;101289.88;4895461;29;20442;-81
2022/03/13 06:52:47;;;;;;;;;;;;;;;7.56;63.04;101298.66;4896692;29;19931;-81
2022/03/13 06:55:14;;;;;;;;;;;;;;;7.57;62.79;101292.50;4898124;29;20010;-83
2022/03/13 06:57:40;;;;;;;;;;;;;;;7.59;61.88;101291.63;4880176;29;19926;-81
2022/03/13 07:00:06;;;;;;;;;;;;;;;7.63;63.21;101292.50;4898507;29;20267;-81
2022/03/13 07:02:31;;;;;;;;;;;;;;;7.63;62.13;101295.13;4915146;29;19966;-83
2022/03/13 07:04:57;;;;;;;;;;;;;;;7.64;62.88;101303.03;4915320;29;20258;-81
2022/03/13 07:07:22;;;;;;;;;;;;;;;7.67;62.86;101291.63;4929478;29;19922;-82
2022/03/13 07:09:48;;;;;;;;;;;;;;;7.70;62.51;101291.59;4882601;29;20407;-82
2022/03/13 07:12:14;;;;;;;;;;;;;;;7.70;63.36;101289.84;4898201;29;19930;-81
2022/03/13 07:14:46;;;;;;;;;;;;;;;7.72;63.17;101290.72;4911862;29;20041;-82
2022/03/13 07:17:12;;;;;;;;;;;;;;;7.74;63.42;101285.44;4910221;29;19923;-82
2022/03/13 07:19:39;;;;;;;;;;;;;;;7.77;62.66;101285.44;4916822;29;19915;-82
2022/03/13 07:22:05;;;;;;;;;;;;;;;7.80;63.07;101285.41;4913784;29;20271;-81
2022/03/13 07:24:30;;;;;;;;;;;;;;;7.83;62.82;101287.16;4929014;29;19962;-82
2022/03/13 07:26:56;;;;;;;;;;;;;;;7.86;62.64;101289.78;4913658;29;19967;-82
2022/03/13 07:29:21;;;;;;;;;;;;;;;7.90;62.18;101296.81;4930032;29;20304;-82
2022/03/13 07:31:46;;;;;;;;;;;;;;;7.93;63.23;101292.38;4926282;29;20287;-82
2022/03/13 07:34:12;;;;;;;;;;;;;;;7.98;62.01;101293.25;4897952;29;19919;-82
2022/03/13 07:36:39;;;;;;;;;;;;;;;8.00;62.35;101292.38;4913695;29;20344;-82
2022/03/13 07:39:05;;;;;;;;;;;;;;;8.04;62.16;101287.09;4898380;29;19958;-82
2022/03/13 07:41:30;;;;;;;;;;;;;;;8.03;63.14;101282.69;4914886;29;19965;-82
2022/03/13 07:43:55;;;;;;;;;;;;;;;8.05;61.54;101280.03;4897837;29;20294;-82
2022/03/13 07:46:21;;;;;;;;;;;;;;;8.05;62.24;101278.28;4913499;29;20336;-82
2022/03/13 07:48:46;;;;;;;;;;;;;;;8.09;61.74;101279.16;4882166;29;20026;-83
2022/03/13 07:51:12;;;;;;;;;;;;;;;8.12;61.96;101284.41;4882309;29;19915;-83
2022/03/13 07:53:37;;;;;;;;;;;;;;;8.17;62.40;101280.00;4913273;29;19930;-82
2022/03/13 07:56:03;;;;;;;;;;;;;;;8.22;62.16;101277.34;4882462;29;19923;-82
2022/03/13 07:58:28;;;;;;;;;;;;;;;8.26;62.18;101277.31;4913467;29;19931;-82
2022/03/13 08:00:54;;;;;;;;;;;;;;;8.30;62.65;101283.44;4882620;29;19923;-82
2022/03/13 08:03:35;;;;;;;;;;;;;;;8.33;62.62;101273.75;4897721;29;19970;-82
2022/03/13 08:06:01;;;;;;;;;;;;;;;8.38;61.62;101281.63;4913841;29;19919;-83
2022/03/13 08:08:26;;;;;;;;;;;;;;;8.40;60.81;101277.25;4914023;29;19962;-82
2022/03/13 08:10:52;;;;;;;;;;;;;;;8.42;61.43;101272.84;4897662;29;19919;-82
2022/03/13 08:13:17;;;;;;;;;;;;;;;8.47;61.77;101278.97;4911449;29;20233;-82
2022/03/13 08:15:42;;;;;;;;;;;;;;;8.51;60.71;101274.56;4897447;29;19963;-83
2022/03/13 08:18:09;;;;;;;;;;;;;;;8.56;62.15;101280.69;4897740;29;19926;-84
2022/03/13 08:20:35;;;;;;;;;;;;;;;8.61;61.32;101282.41;4897783;29;20327;-83
2022/03/13 08:23:00;;;;;;;;;;;;;;;8.65;61.26;101277.97;4898856;29;19986;-84
2022/03/13 08:25:26;;;;;;;;;;;;;;;8.70;61.52;101276.16;4926676;29;19980;-84
2022/03/13 08:27:51;;;;;;;;;;;;;;;8.74;60.78;101282.31;4898594;29;19926;-84
2022/03/13 08:30:16;;;;;;;;;;;;;;;8.79;60.51;101275.22;4929772;29;19915;-83
2022/03/13 08:32:42;;;;;;;;;;;;;;;8.80;60.00;101280.50;4914474;29;20386;-83
2022/03/13 08:35:08;;;;;;;;;;;;;;;8.81;60.83;101276.09;4882727;29;20355;-83
2022/03/13 08:37:33;;;;;;;;;;;;;;;8.87;60.26;101278.69;4900325;29;19958;-83
2022/03/13 08:39:59;;;;;;;;;;;;;;;8.93;60.25;101285.69;4932453;29;19915;-83
2022/03/13 08:42:25;;;;;;;;;;;;;;;8.98;60.10;101291.81;4886220;29;19929;-83
2022/03/13 08:44:50;;;;;;;;;;;;;;;9.05;58.91;101280.31;4914944;29;20256;-83
2022/03/13 08:47:15;;;;;;;;;;;;;;;9.10;59.58;101281.16;4901202;29;19927;-83
2022/03/13 08:49:42;;;;;;;;;;;;;;;9.19;59.11;101281.06;4917388;29;20017;-83
2022/03/13 08:52:08;;;;;;;;;;;;;;;9.28;58.52;101282.75;4901491;29;20006;-83
2022/03/13 08:54:34;;;;;;;;;;;;;;;9.34;58.54;101284.44;4916754;29;19919;-84
2022/03/13 08:56:59;;;;;;;;;;;;;;;9.42;58.18;101277.31;4916561;29;19957;-84
2022/03/13 08:59:25;;;;;;;;;;;;;;;9.47;57.56;101273.75;4885512;29;19919;-83
2022/03/13 09:01:56;;;;;;;;;;;;;;;9.54;58.04;101285.09;4910914;29;19919;-83
2022/03/13 09:04:22;;;;;;;;;;;;;;;9.61;58.01;101276.22;4930450;29;19975;-83
2022/03/13 09:06:49;;;;;;;;;;;;;;;9.71;57.77;101274.34;4911074;29;19915;-83
2022/03/13 09:09:15;;;;;;;;;;;;;;;9.84;57.42;101268.06;4900977;29;19930;-83
2022/03/13 09:11:40;;;;;;;;;;;;;;;9.99;57.17;101258.16;4897873;29;19915;-83
2022/03/13 09:14:06;;;;;;;;;;;;;;;10.12;56.48;101259.75;4895067;29;19920;-83
2022/03/13 09:16:32;;;;;;;;;;;;;;;10.26;55.32;101263.09;4913517;29;19998;-83
2022/03/13 09:18:59;;;;;;;;;;;;;;;10.38;55.11;101258.53;4914035;29;19931;-83
2022/03/13 09:21:24;;;;;;;;;;;;;;;10.56;55.41;101255.66;4913692;29;19941;-83
2022/03/13 09:23:50;;;;;;;;;;;;;;;10.71;54.90;101263.34;4930628;29;20378;-83
2022/03/13 09:26:15;;;;;;;;;;;;;;;10.90;55.31;101261.25;4901282;29;20006;-85
2022/03/13 09:28:44;;;;;;;;;;;;;;;11.10;54.24;101262.69;4917044;29;19919;-85
2022/03/13 09:31:10;;;;;;;;;;;;;;;11.19;53.83;101260.75;4932228;29;20422;-84
2022/03/13 09:33:35;;;;;;;;;;;;;;;11.31;54.07;101253.50;4915593;29;19942;-83
2022/03/13 09:36:01;;;;;;;;;;;;;;;11.45;53.61;101254.13;4917327;29;19915;-85
2022/03/13 09:38:27;;;;;;;;;;;;;;;11.58;53.27;101252.13;4917205;29;20415;-84
2022/03/13 09:40:53;;;;;;;;;;;;;;;11.67;52.48;101253.69;4931557;29;20070;-84
2022/03/13 09:43:19;;;;;;;;;;;;;;;11.74;52.35;101252.66;4915488;29;19934;-88
2022/03/13 09:45:45;;;;;;;;;;;;;;;11.84;52.51;101248.91;4900856;29;20307;-87
2022/03/13 09:48:15;;;;;;;;;;;;;;;11.93;52.55;101254.09;4898284;29;20387;-87
2022/03/13 09:50:41;;;;;;;;;;;;;;;12.02;52.06;101251.25;4913520;29;19962;-86
2022/03/13 09:53:06;;;;;;;;;;;;;;;12.18;52.11;101259.75;4917386;29;20010;-86
2022/03/13 09:55:32;;;;;;;;;;;;;;;12.34;51.97;101254.06;4900692;29;19919;-88
2022/03/13 09:57:57;;;;;;;;;;;;;;;12.52;51.43;101248.34;4900841;29;19927;-85
2022/03/13 10:00:25;;;;;;;;;;;;;;;12.71;51.01;101246.16;4916688;29;20319;-87
2022/03/13 10:02:54;;;;;;;;;;;;;;;12.89;51.00;101251.00;4900723;29;19911;-85
2022/03/13 10:05:20;;;;;;;;;;;;;;;13.05;49.88;101248.81;4900869;29;19962;-87
2022/03/13 10:07:48;;;;;;;;;;;;;;;13.17;49.17;101250.28;4917694;29;19918;-85
2022/03/13 10:10:14;;;;;;;;;;;;;;;13.17;49.40;101242.31;4917643;29;20269;-86
2022/03/13 10:12:40;;;;;;;;;;;;;;;13.25;49.09;101243.00;4931875;29;20013;-87
2022/03/13 10:15:08;;;;;;;;;;;;;;;13.37;48.46;101230.31;4916452;29;20263;-88
2022/03/13 10:17:35;;;;;;;;;;;;;;;13.39;48.37;101236.47;4916551;29;19919;-86
2022/03/13 10:20:30;;;;;;;;;;;;;;;13.46;48.63;101227.41;4916185;29;20351;-85
2022/03/13 10:23:01;;;;;;;;;;;;;;;13.50;48.49;101224.63;4913001;29;19954;-87
2022/03/13 10:25:33;;;;;;;;;;;;;;;13.50;48.77;101213.97;4928179;29;19974;-86
2022/03/13 10:28:18;;;;;;;;;;;;;;;13.57;48.32;101222.63;4915911;29;19915;-85
2022/03/13 10:30:44;;;;;;;;;;;;;;;13.69;48.61;101218.75;4917053;29;19915;-86
2022/03/13 10:33:09;;;;;;;;;;;;;;;13.83;48.15;101207.72;4899831;29;19923;-86
2022/03/13 10:35:35;;;;;;;;;;;;;;;14.02;48.79;101216.91;4917180;29;19929;-85
2022/03/13 10:38:04;;;;;;;;;;;;;;;14.24;47.11;101213.56;4917027;29;20396;-88
2022/03/13 10:40:34;;;;;;;;;;;;;;;14.35;47.71;101203.47;4915649;29;20399;-87
2022/03/13 10:43:04;;;;;;;;;;;;;;;14.47;47.67;101200.41;4917120;29;20303;-86
2022/03/13 10:45:47;;;;;;;;;;;;;;;14.53;46.72;101202.88;4897111;29;20010;-86
2022/03/13 10:48:16;;;;;;;;;;;;;;;14.69;46.26;101202.38;4897982;29;19946;-87
2022/03/13 10:50:45;;;;;;;;;;;;;;;14.75;46.79;101195.06;4912304;29;20013;-86
2022/03/13 10:53:14;;;;;;;;;;;;;;;14.83;46.08;101198.34;4911560;29;19931;-86
2022/03/13 10:55:44;;;;;;;;;;;;;;;14.82;45.42;101204.59;4897894;29;20368;-86
2022/03/13 10:58:10;;;;;;;;;;;;;;;14.76;45.49;101198.59;4912184;29;20025;-86
2022/03/13 11:00:36;;;;;;;;;;;;;;;14.72;46.17;101205.84;4911140;29;19999;-85
2022/03/13 11:03:10;;;;;;;;;;;;;;;14.83;45.64;101208.13;4911894;29;19979;-86
2022/03/13 11:05:36;;;;;;;;;;;;;;;14.90;44.86;101193.66;4911894;29;19951;-86
2022/03/13 11:08:04;;;;;;;;;;;;;;;14.91;45.43;101192.78;4911783;29;20289;-87
2022/03/13 11:10:30;;;;;;;;;;;;;;;14.81;45.34;101196.63;4911846;29;19979;-86
2022/03/13 11:12:57;;;;;;;;;;;;;;;14.76;45.23;101193.25;4913499;29;19923;-85
2022/03/13 11:15:27;;;;;;;;;;;;;;;14.86;45.06;101184.06;4927039;29;19945;-86
2022/03/13 11:17:54;;;;;;;;;;;;;;;15.07;45.75;101177.09;4895579;29;20351;-85
2022/03/13 11:20:20;;;;;;;;;;;;;;;15.37;45.11;101183.13;4911440;29;19916;-85
2022/03/13 11:22:46;;;;;;;;;;;;;;;15.47;44.50;101179.19;4911613;29;19958;-85
2022/03/13 11:25:12;;;;;;;;;;;;;;;15.62;43.55;101180.41;4925227;29;20315;-85
2022/03/13 11:27:38;;;;;;;;;;;;;;;15.67;44.66;101172.25;4946578;28;19919;-85
2022/03/13 11:30:05;;;;;;;;;;;;;;;15.72;43.52;101164.94;4916109;29;19922;-84
2022/03/13 11:32:33;;;;;;;;;;;;;;;15.81;44.52;101167.28;4928463;29;19923;-86
2022/03/13 11:35:07;;;;;;;;;;;;;;;16.00;43.93;101161.22;4934850;29;20335;-87
2022/03/13 11:37:33;;;;;;;;;;;;;;;16.21;42.17;101156.81;4933408;29;19921;-85
2022/03/13 11:39:59;;;;;;;;;;;;;;;16.36;43.53;101166.03;4933560;29;20243;-84
2022/03/13 11:42:24;;;;;;;;;;;;;;;16.66;43.31;101166.56;4934822;29;20025;-85
2022/03/13 11:44:50;;;;;;;;;;;;;;;16.85;42.46;101167.56;4892912;29;19926;-85
2022/03/13 11:47:21;;;;;;;;;;;;;;;16.95;41.21;101158.19;4914642;29;19919;-86
2022/03/13 11:49:46;;;;;;;;;;;;;;;16.97;41.17;101155.47;4914396;29;19923;-86
2022/03/13 11:52:17;;;;;;;;;;;;;;;16.89;41.26;101150.44;4914589;29;19919;-87
2022/03/13 11:54:52;;;;;;;;;;;;;;;16.97;42.12;101150.97;4914602;29;19919;-85
2022/03/13 11:57:19;;;;;;;;;;;;;;;17.10;41.35;101145.94;4914572;29;20361;-86
2022/03/13 11:59:48;;;;;;;;;;;;;;;17.19;40.62;101148.22;4915915;29;20009;-87
2022/03/13 12:02:33;;;;;;;;;;;;;;;17.26;41.47;101146.16;4899265;29;20010;-86
2022/03/13 12:05:17;;;;;;;;;;;;;;;17.24;40.45;101142.66;4914545;29;19941;-86
2022/03/13 12:07:51;;;;;;;;;;;;;;;17.35;40.96;101136.81;4898914;29;19915;-86
2022/03/13 12:10:35;;;;;;;;;;;;;;;17.35;40.06;101135.00;4914812;29;19983;-87
2022/03/13 12:13:03;;;;;;;;;;;;;;;17.46;40.98;101145.25;4922343;29;19930;-87
2022/03/13 12:15:29;;;;;;;;;;;;;;;17.52;40.55;101136.91;4937245;29;19921;-87
2022/03/13 12:17:56;;;;;;;;;;;;;;;17.71;40.57;101136.09;4938692;29;19914;-86
2022/03/13 12:20:24;;;;;;;;;;;;;;;17.91;40.28;101137.84;4938687;29;19953;-87
2022/03/13 12:22:54;;;;;;;;;;;;;;;17.96;38.78;101130.47;4937893;29;19911;-86
2022/03/13 12:25:30;;;;;;;;;;;;;;;18.03;40.06;101127.41;4937239;29;19930;-86
2022/03/13 12:27:56;;;;;;;;;;;;;;;18.16;39.66;101118.75;4921549;29;20009;-87
2022/03/13 12:30:23;;;;;;;;;;;;;;;18.38;40.93;101118.56;4936841;29;20010;-86
2022/03/13 12:32:56;;;;;;;;;;;;;;;18.60;40.93;101121.03;4936808;29;19926;-87
2022/03/13 12:35:21;;;;;;;;;;;;;;;18.78;39.14;101119.25;4938201;29;19914;-86
2022/03/13 12:37:55;;;;;;;;;;;;;;;18.87;39.79;101110.75;4936526;29;20390;-86
2022/03/13 12:40:21;;;;;;;;;;;;;;;18.91;39.27;101109.59;4936277;29;20367;-87